Terminal Aerodrome Forecast
Issued by NWS

Current Version | Previous Version | Graphics & Text | Print | Product List | Glossary On
Versions: 1 2 3 4 5 6 7 8 9 10 11 12 13 14 15 16 17
000
FTUS41 KPBZ 292344
TAFMGW
TAF
KMGW 292344Z 3000/3024 09012G25KT P6SM -SHRA BKN030
     FM301000 10012KT P6SM VCSH OVC040
     FM301200 09014G20KT P6SM BKN050=

USA.gov is the U.S. government's official web portal to all federal, state and local government web resources and services.